ADDS METAR Data INFO
IDs: Format: Raw Decoded Include TAF

Data at: 0440 UTC 24 Apr 2018

KCVB 240415Z AUTO 00000KT 10SM CLR 19/10 A3005 RMK AO2 T01880095
KCVB 240355Z AUTO 00000KT 10SM CLR 21/10 A3005 RMK AO2 T02060095
KCVB 240335Z AUTO 08003KT 10SM CLR 21/10 A3005 RMK AO2 T02050096
KCVB 240315Z AUTO 08003KT 10SM CLR 21/10 A3004 RMK AO2 T02100095
KCVB 240255Z AUTO 00000KT 10SM CLR 21/10 A3004 RMK AO2 T02090096
KCVB 240235Z AUTO 00000KT 10SM CLR 22/09 A3003 RMK AO2 T02190088
KCVB 240215Z AUTO 16003KT 10SM CLR 23/09 A3002 RMK AO2 T02250085
KCVB 240155Z AUTO 00000KT 10SM CLR 23/09 A3001 RMK AO2 T02310085
KCVB 240135Z AUTO 15004KT 10SM CLR 24/08 A3000 RMK AO2 T02370077
KCVB 240115Z AUTO 15005KT 10SM CLR 25/08 A3000 RMK AO2 T02460080
KCVB 240055Z AUTO 15005KT 10SM CLR 25/08 A2999 RMK AO2 T02540080
KCVB 240035Z AUTO 15005KT 10SM CLR 27/08 A2999 RMK AO2 T02670082
KCVB 240015Z AUTO 15006KT 10SM CLR 28/08 A2999 RMK AO2 T02780079
KCVB 232355Z AUTO 12006KT 10SM CLR 28/08 A2999 RMK AO2 T02820081 10296 20255
KCVB 232335Z AUTO 13006KT 10SM CLR 29/08 A2999 RMK AO2 T02890075
KCVB 232315Z AUTO 17006KT 10SM CLR 29/08 A2999 RMK AO2 T02910076
KCVB 232255Z AUTO 15007KT 10SM CLR 30/08 A2999 RMK AO2 T02960077
KCVB 232235Z AUTO 17004KT 10SM CLR 30/08 A2999 RMK AO2 T02950075
KCVB 232215Z AUTO 17006KT 10SM CLR 30/08 A3000 RMK AO2 T02950078
KCVB 232155Z AUTO 12003KT 10SM CLR 29/08 A3001 RMK AO2 T02880077
KCVB 232135Z AUTO 13004KT 10SM CLR 30/08 A3002 RMK AO2 T02960080
KCVB 232115Z AUTO 15006KT 10SM CLR 29/08 A3002 RMK AO2 T02890076
KCVB 232055Z AUTO 11003KT 10SM CLR 29/08 A3003 RMK AO2 T02880077
KCVB 232035Z AUTO 00000KT 10SM CLR 28/08 A3005 RMK AO2 T02820078
KCVB 232015Z AUTO 15007KT 10SM CLR 29/09 A3006 RMK AO2 T02880085
KCVB 231955Z AUTO 14005KT 10SM CLR 28/08 A3007 RMK AO2 T02790082
KCVB 231935Z AUTO 12004G08KT 10SM CLR 28/08 A3007 RMK AO2 T02760081
KCVB 231915Z AUTO 00000KT 10SM CLR 27/08 A3008 RMK AO2 T02720078
KCVB 231855Z AUTO 00000KT 10SM CLR 27/08 A3009 RMK AO2 T02660075
KCVB 231835Z AUTO 22003KT 10SM CLR 26/07 A3010 RMK AO2 T02610073
KCVB 231815Z AUTO 20003KT 10SM CLR 26/07 A3012 RMK AO2 T02570069
KCVB 231755Z AUTO 15003KT 10SM CLR 26/08 A3013 RMK AO2 T02550077 10255 20128
KCVB 231735Z AUTO 00000KT 10SM CLR 25/08 A3013 RMK AO2 T02460076
KCVB 231715Z AUTO 00000KT 10SM CLR 24/08 A3014 RMK AO2 T02410076
KCVB 231655Z AUTO 22003KT 10SM CLR 24/08 A3015 RMK AO2 T02370075
KCVB 231635Z AUTO 14004KT 10SM CLR 23/07 A3015 RMK AO2 T02300072
KCVB 231615Z AUTO 00000KT 10SM CLR 23/07 A3016 RMK AO2 T02250065
KCVB 231555Z AUTO 03003KT 10SM CLR 22/08 A3016 RMK AO2 T02210078
KCVB 231535Z AUTO 13003KT 10SM CLR 21/08 A3017 RMK AO2 T02140077
KCVB 231515Z AUTO 10004KT 10SM CLR 21/08 A3017 RMK AO2 T02070076
KCVB 231455Z AUTO 10003KT 10SM CLR 20/08 A3017 RMK AO2 T02020075
KCVB 231435Z AUTO 09003KT 10SM CLR 19/07 A3017 RMK AO2 T01930073
KCVB 231415Z AUTO 09004KT 10SM CLR 19/08 A3016 RMK AO2 T01870081
KCVB 231355Z AUTO 07003KT 10SM CLR 17/08 A3015 RMK AO2 T01730081
KCVB 231335Z AUTO 00000KT 10SM CLR 16/09 A3016 RMK AO2 T01590087
KCVB 231315Z AUTO 00000KT 10SM CLR 14/09 A3016 RMK AO2 T01420090
KCVB 231255Z AUTO 35003KT 10SM CLR 14/09 A3015 RMK AO2 T01400088
KCVB 231235Z AUTO 00000KT 10SM CLR 14/09 A3014 RMK AO2 T01350090
KCVB 231215Z AUTO 00000KT 10SM CLR 13/09 A3012 RMK AO2 T01310090
KCVB 231155Z AUTO 00000KT 10SM CLR 13/09 A3012 RMK AO2 T01270087 10170 20109
KCVB 231135Z AUTO 25003KT 10SM CLR 12/09 A3012 RMK AO2 T01210088
KCVB 231115Z AUTO 28003KT 10SM CLR 12/08 A3010 RMK AO2 T01210083
KCVB 231055Z AUTO 00000KT 10SM CLR 12/08 A3009 RMK AO2 T01170080
KCVB 231035Z AUTO 00000KT 10SM CLR 11/08 A3009 RMK AO2 T01130075
KCVB 231015Z AUTO 00000KT 10SM CLR 11/07 A3008 RMK AO2 T01100070
KCVB 230955Z AUTO 00000KT 10SM CLR 12/08 A3007 RMK AO2 T01200078
KCVB 230935Z AUTO 00000KT 10SM CLR 12/08 A3008 RMK AO2 T01230081
KCVB 230915Z AUTO 15003KT 10SM CLR 12/08 A3007 RMK AO2 T01180083
KCVB 230855Z AUTO 00000KT 10SM CLR 12/08 A3007 RMK AO2 T01150084
KCVB 230835Z AUTO 00000KT 10SM CLR 12/07 A3006 RMK AO2 T01150071
KCVB 230815Z AUTO 00000KT 10SM CLR 13/07 A3006 RMK AO2 T01250068
KCVB 230755Z AUTO 00000KT 10SM CLR 13/07 A3006 RMK AO2 T01310074
KCVB 230735Z AUTO 00000KT 10SM CLR 14/08 A3007 RMK AO2 T01370084
KCVB 230715Z AUTO 00000KT 10SM CLR 15/08 A3007 RMK AO2 T01450083
KCVB 230655Z AUTO 00000KT 10SM CLR 15/09 A3008 RMK AO2 T01520086
KCVB 230635Z AUTO 00000KT 10SM CLR 15/08 A3009 RMK AO2 T01490080
KCVB 230615Z AUTO 00000KT 10SM CLR 16/10 A3009 RMK AO2 T01640096
KCVB 230555Z AUTO 00000KT 10SM CLR 17/10 A3008 RMK AO2 T01700096 10266 20170 402810115
KCVB 230535Z AUTO 00000KT 10SM CLR 17/10 A3008 RMK AO2 T01710095
KCVB 230515Z AUTO 08003KT 10SM CLR 18/10 A3008 RMK AO2 T01750096
KCVB 230455Z AUTO 00000KT 10SM CLR 18/10 A3007 RMK AO2 T01810099
KCVB 230435Z AUTO 09003KT 10SM CLR 19/10 A3008 RMK AO2 T01860096
KCVB 230415Z AUTO 08004KT 10SM CLR 19/10 A3008 RMK AO2 T01860095
KCVB 230355Z AUTO 08003KT 10SM CLR 20/10 A3006 RMK AO2 T01950095
KCVB 230335Z AUTO 10004KT 10SM CLR 20/09 A3006 RMK AO2 T01980094
KCVB 230315Z AUTO 09003KT 10SM CLR 20/09 A3006 RMK AO2 T02020092
KCVB 230255Z AUTO 10003KT 10SM CLR 21/09 A3004 RMK AO2 T02080089
KCVB 230235Z AUTO 10004KT 10SM CLR 21/08 A3004 RMK AO2 T02110083
KCVB 230215Z AUTO 08003KT 10SM CLR 21/09 A3003 RMK AO2 T02120086
KCVB 230155Z AUTO 00000KT 10SM CLR 22/08 A3003 RMK AO2 T02180084
KCVB 230135Z AUTO 00000KT 10SM CLR 22/08 A3002 RMK AO2 T02240081
KCVB 230115Z AUTO 14003KT 10SM CLR 23/07 A3002 RMK AO2 T02300070
KCVB 230055Z AUTO 15003KT 10SM CLR 24/07 A3002 RMK AO2 T02390067
KCVB 230035Z AUTO 14004KT 10SM CLR 25/07 A3000 RMK AO2 T02450068
KCVB 230015Z AUTO 15005KT 10SM CLR 25/07 A3001 RMK AO2 T02500067
KCVB 222355Z AUTO 00000KT 10SM CLR 27/03 A3000 RMK AO2 T02660032 10281 20232
KCVB 222335Z AUTO 00000KT 10SM CLR 27/04 A3000 RMK AO2 T02660037
KCVB 222315Z AUTO 01003KT 10SM CLR 27/04 A2999 RMK AO2 T02660038
KCVB 222255Z AUTO 02004KT 10SM CLR 27/04 A2999 RMK AO2 T02670039
KCVB 222235Z AUTO 33006KT 10SM CLR 27/03 A2999 RMK AO2 T02650032
KCVB 222215Z AUTO 35006G17KT 10SM CLR 27/03 A2999 RMK AO2 T02740030
KCVB 222155Z AUTO 36006KT 10SM CLR 28/03 A3000 RMK AO2 T02780032
KCVB 222135Z AUTO 34006KT 10SM CLR 28/04 A3001 RMK AO2 T02790036
KCVB 222115Z AUTO 30004KT 10SM CLR 27/03 A3002 RMK AO2 T02690031
KCVB 222055Z AUTO 34005KT 10SM CLR 27/04 A3003 RMK AO2 T02720037
KCVB 222035Z AUTO 27003KT 10SM CLR 27/04 A3004 RMK AO2 T02670040
KCVB 222015Z AUTO 00000KT 10SM CLR 26/04 A3005 RMK AO2 T02620041
KCVB 221955Z AUTO 30007KT 10SM CLR 26/05 A3007 RMK AO2 T02640048
KCVB 221935Z AUTO 29006KT 10SM CLR 26/06 A3007 RMK AO2 T02580059
KCVB 221915Z AUTO 31007KT 230V330 10SM CLR 25/06 A3008 RMK AO2 T02520055
KCVB 221855Z AUTO 32006KT 10SM CLR 25/06 A3009 RMK AO2 T02470055
KCVB 221835Z AUTO 01003KT 10SM CLR 24/06 A3010 RMK AO2 T02440061
KCVB 221815Z AUTO 34006KT 10SM CLR 24/06 A3010 RMK AO2 T02370061
KCVB 221755Z AUTO 30006KT 10SM CLR 23/06 A3012 RMK AO2 T02320056 10232 20122
KCVB 221735Z AUTO 00000KT 10SM CLR 22/06 A3013 RMK AO2 T02230055
KCVB 221715Z AUTO 01009KT 10SM CLR 22/06 A3014 RMK AO2 T02220057
KCVB 221655Z AUTO 01004KT 10SM CLR 21/06 A3015 RMK AO2 T02100057